createdAt,value
2022-09-25T00:00:59.045Z,100.00
2022-09-25T00:03:39.363Z,100.00
2022-09-25T00:06:12.931Z,100.00
2022-09-25T00:08:40.268Z,100.00
2022-09-25T00:11:10.448Z,100.00
2022-09-25T00:13:38.003Z,100.00
2022-09-25T00:16:05.098Z,100.00
2022-09-25T00:18:51.009Z,100.00
2022-09-25T00:21:18.139Z,100.00
2022-09-25T00:23:46.551Z,100.00
2022-09-25T00:26:16.311Z,100.00
2022-09-25T00:28:43.616Z,100.00
2022-09-25T00:31:11.660Z,100.00
2022-09-25T00:33:38.532Z,100.00
2022-09-25T00:36:08.858Z,100.00
2022-09-25T00:38:37.521Z,100.00
2022-09-25T00:41:06.175Z,100.00
2022-09-25T00:43:45.329Z,100.00
2022-09-25T00:46:16.558Z,100.00
2022-09-25T00:48:51.409Z,100.00
2022-09-25T00:51:21.229Z,100.00
2022-09-25T00:53:49.255Z,100.00
2022-09-25T00:56:16.482Z,100.00
2022-09-25T00:58:43.938Z,100.00
2022-09-25T01:01:13.659Z,100.00
2022-09-25T01:03:42.101Z,100.00
2022-09-25T01:06:12.189Z,100.00
2022-09-25T01:08:40.182Z,100.00
2022-09-25T01:11:07.377Z,100.00
2022-09-25T01:13:34.608Z,100.00
2022-09-25T01:16:30.705Z,100.00
2022-09-25T01:18:57.653Z,100.00
2022-09-25T01:21:43.473Z,100.00
2022-09-25T01:24:44.318Z,100.00
2022-09-25T01:27:20.315Z,100.00
2022-09-25T01:29:53.316Z,100.00
2022-09-25T01:32:47.185Z,100.00
2022-09-25T01:35:25.812Z,100.00
2022-09-25T01:38:02.316Z,100.00
2022-09-25T01:40:49.979Z,100.00
2022-09-25T01:43:23.118Z,100.00
2022-09-25T01:46:01.499Z,100.00
2022-09-25T01:48:31.793Z,100.00
2022-09-25T01:51:13.870Z,100.00
2022-09-25T01:53:48.126Z,100.00
2022-09-25T01:56:38.818Z,100.00
2022-09-25T01:59:28.588Z,100.00
2022-09-25T02:01:59.558Z,100.00
2022-09-25T02:04:37.222Z,100.00
2022-09-25T02:07:09.401Z,100.00
2022-09-25T02:10:02.768Z,100.00
2022-09-25T02:12:43.723Z,100.00
2022-09-25T02:15:21.691Z,100.00
2022-09-25T02:18:19.400Z,100.00
2022-09-25T02:20:50.468Z,100.00
2022-09-25T02:23:23.592Z,100.00
2022-09-25T02:26:00.406Z,100.00
2022-09-25T02:28:27.417Z,100.00
2022-09-25T02:30:57.799Z,100.00
2022-09-25T02:33:26.395Z,100.00
2022-09-25T02:35:54.134Z,100.00
2022-09-25T02:38:21.682Z,100.00
2022-09-25T02:43:54.696Z,100.00
2022-09-25T02:47:00.739Z,100.00
2022-09-25T02:49:42.247Z,100.00
2022-09-25T02:52:28.132Z,100.00
2022-09-25T02:55:12.470Z,100.00
2022-09-25T02:57:50.373Z,100.00
2022-09-25T03:00:18.090Z,100.00
2022-09-25T03:02:52.173Z,100.00
2022-09-25T03:05:20.549Z,100.00
2022-09-25T03:08:06.252Z,100.00
2022-09-25T03:10:36.737Z,100.00
2022-09-25T03:13:26.686Z,100.00
2022-09-25T03:15:59.742Z,100.00
2022-09-25T03:18:28.589Z,100.00
2022-09-25T03:20:55.448Z,100.00
2022-09-25T03:23:22.287Z,100.00
2022-09-25T03:25:50.488Z,100.00
2022-09-25T03:28:17.679Z,100.00
2022-09-25T03:30:44.489Z,100.00
2022-09-25T03:33:12.902Z,100.00
2022-09-25T03:35:40.289Z,100.00
2022-09-25T03:38:10.522Z,100.00
2022-09-25T03:40:37.628Z,100.00
2022-09-25T03:45:30.155Z,100.00
2022-09-25T03:47:57.160Z,100.00
2022-09-25T03:50:23.917Z,100.00
2022-09-25T03:52:50.675Z,100.00
2022-09-25T03:55:17.802Z,100.00
2022-09-25T03:57:44.549Z,100.00
2022-09-25T04:00:11.981Z,100.00
2022-09-25T04:02:39.159Z,100.00
2022-09-25T04:05:07.081Z,100.00
2022-09-25T04:07:33.918Z,100.00
2022-09-25T04:10:00.897Z,100.00
2022-09-25T04:12:28.565Z,100.00
2022-09-25T04:14:55.306Z,100.00
2022-09-25T04:17:22.343Z,100.00
2022-09-25T04:19:49.253Z,100.00
2022-09-25T04:22:16.029Z,100.00
2022-09-25T04:24:48.552Z,100.00
2022-09-25T04:27:20.532Z,100.00
2022-09-25T04:29:48.281Z,100.00
2022-09-25T04:32:34.922Z,100.00
2022-09-25T04:35:02.297Z,100.00
2022-09-25T04:37:29.216Z,100.00
2022-09-25T04:39:57.377Z,100.00
2022-09-25T04:42:24.808Z,100.00
2022-09-25T04:44:53.671Z,100.00
2022-09-25T04:47:24.768Z,100.00
2022-09-25T04:49:52.624Z,100.00
2022-09-25T04:52:20.402Z,100.00
2022-09-25T04:54:47.870Z,100.00
2022-09-25T04:57:32.626Z,100.00
2022-09-25T05:00:06.216Z,100.00
2022-09-25T05:02:33.307Z,100.00
2022-09-25T05:05:00.299Z,100.00
2022-09-25T05:07:27.125Z,100.00
2022-09-25T05:09:54.091Z,100.00
2022-09-25T05:12:20.974Z,100.00
2022-09-25T05:14:47.798Z,100.00
2022-09-25T05:17:14.740Z,100.00
2022-09-25T05:19:41.563Z,100.00
2022-09-25T05:22:08.412Z,100.00
2022-09-25T05:24:35.530Z,100.00
2022-09-25T05:27:02.375Z,100.00
2022-09-25T05:29:29.133Z,100.00
2022-09-25T05:31:56.433Z,100.00
2022-09-25T05:34:23.306Z,100.00
2022-09-25T05:36:50.479Z,100.00
2022-09-25T05:39:17.428Z,100.00
2022-09-25T05:41:44.217Z,100.00
2022-09-25T05:44:11.442Z,100.00
2022-09-25T05:46:40.524Z,100.00
2022-09-25T05:49:07.450Z,100.00
2022-09-25T05:51:34.473Z,100.00
2022-09-25T05:54:01.547Z,100.00
2022-09-25T05:56:28.515Z,99.81
2022-09-25T05:58:56.181Z,97.23
2022-09-25T06:01:23.163Z,97.48
2022-09-25T06:03:50.023Z,95.59
2022-09-25T06:06:16.791Z,94.77
2022-09-25T06:08:43.722Z,93.37
2022-09-25T06:11:11.582Z,94.77
2022-09-25T06:13:38.487Z,94.73
2022-09-25T06:16:05.737Z,94.38
2022-09-25T06:18:34.031Z,94.89
2022-09-25T06:21:05.459Z,95.55
2022-09-25T06:23:32.606Z,95.48
2022-09-25T06:26:04.418Z,96.13
2022-09-25T06:28:32.027Z,96.56
2022-09-25T06:31:04.178Z,96.40
2022-09-25T06:33:31.817Z,97.24
2022-09-25T06:35:58.670Z,96.21
2022-09-25T06:38:25.963Z,96.20
2022-09-25T06:40:52.893Z,96.32
2022-09-25T06:43:19.768Z,96.24
2022-09-25T06:45:47.989Z,96.12
2022-09-25T06:48:18.368Z,94.96
2022-09-25T06:50:50.449Z,94.52
2022-09-25T06:53:18.928Z,93.65
2022-09-25T06:55:46.372Z,92.39
2022-09-25T06:58:15.445Z,93.08
2022-09-25T07:00:45.715Z,91.45
2022-09-25T07:03:31.091Z,91.97
2022-09-25T07:06:00.480Z,91.55
2022-09-25T07:08:27.928Z,90.06
2022-09-25T07:10:56.586Z,90.37
2022-09-25T07:13:27.932Z,90.34
2022-09-25T07:16:03.116Z,90.25
2022-09-25T07:18:30.262Z,89.51
2022-09-25T07:21:06.082Z,86.93
2022-09-25T07:23:33.878Z,85.52
2022-09-25T07:26:09.154Z,85.98
2022-09-25T07:28:37.589Z,82.71
2022-09-25T07:31:12.793Z,82.73
2022-09-25T07:33:39.981Z,82.37
2022-09-25T07:36:07.088Z,81.53
2022-09-25T07:38:34.601Z,80.45
2022-09-25T07:41:01.651Z,76.25
2022-09-25T07:43:28.484Z,78.42
2022-09-25T07:45:55.294Z,76.77
2022-09-25T07:48:23.349Z,75.99
2022-09-25T07:50:50.698Z,74.09
2022-09-25T07:53:20.490Z,74.28
2022-09-25T07:55:47.690Z,73.94
2022-09-25T07:58:15.185Z,73.09
2022-09-25T08:00:41.970Z,73.58
2022-09-25T08:03:15.200Z,75.24
2022-09-25T08:05:41.955Z,72.68
2022-09-25T08:08:08.993Z,72.85
2022-09-25T08:10:35.911Z,69.36
2022-09-25T08:13:02.750Z,67.88
2022-09-25T08:15:29.708Z,65.92
2022-09-25T08:17:56.717Z,63.54
2022-09-25T08:20:23.471Z,62.93
2022-09-25T08:22:53.839Z,62.19
2022-09-25T08:25:21.355Z,62.26
2022-09-25T08:27:48.099Z,62.71
2022-09-25T08:30:17.964Z,66.58
2022-09-25T08:32:44.953Z,66.89
2022-09-25T08:35:11.857Z,68.53
2022-09-25T08:37:42.831Z,70.02
2022-09-25T08:40:18.828Z,70.56
2022-09-25T08:42:49.068Z,71.45
2022-09-25T08:45:54.684Z,73.63
2022-09-25T08:48:46.912Z,72.66
2022-09-25T08:51:14.235Z,74.48
2022-09-25T08:53:42.932Z,73.87
2022-09-25T08:56:17.728Z,73.03
2022-09-25T08:58:52.832Z,72.26
2022-09-25T09:01:24.351Z,67.58
2022-09-25T09:04:05.655Z,65.09
2022-09-25T09:06:34.198Z,60.98
2022-09-25T09:09:13.439Z,60.84
2022-09-25T09:11:47.902Z,57.56
2022-09-25T09:14:19.915Z,58.99
2022-09-25T09:17:08.981Z,57.04
2022-09-25T09:19:38.263Z,53.70
2022-09-25T09:22:12.305Z,54.13
2022-09-25T09:24:55.107Z,50.77
2022-09-25T09:27:37.249Z,49.54
2022-09-25T09:30:18.713Z,51.08
2022-09-25T09:32:55.385Z,52.09
2022-09-25T09:35:40.175Z,53.84
2022-09-25T09:38:18.446Z,53.14
2022-09-25T09:41:04.313Z,54.79
2022-09-25T09:43:43.764Z,53.18
2022-09-25T09:46:16.850Z,55.07
2022-09-25T09:49:17.771Z,51.34
2022-09-25T09:51:57.485Z,52.45
2022-09-25T09:55:15.812Z,52.85
2022-09-25T09:57:51.284Z,52.53
2022-09-25T10:00:20.367Z,53.92
2022-09-25T10:03:01.643Z,53.13
2022-09-25T10:05:47.916Z,54.44
2022-09-25T10:08:17.170Z,53.14
2022-09-25T10:10:47.416Z,52.59
2022-09-25T10:13:19.280Z,55.00
2022-09-25T10:15:52.753Z,54.87
2022-09-25T10:18:22.708Z,55.76
2022-09-25T10:20:55.786Z,56.98
2022-09-25T10:23:47.133Z,57.73
2022-09-25T10:26:31.940Z,56.90
2022-09-25T10:29:03.916Z,56.04
2022-09-25T10:31:37.172Z,57.34
2022-09-25T10:34:22.269Z,57.05
2022-09-25T10:36:53.779Z,59.00
2022-09-25T10:39:45.464Z,61.61
2022-09-25T10:42:34.857Z,61.40
2022-09-25T10:45:29.510Z,61.50
2022-09-25T10:48:16.130Z,62.48
2022-09-25T10:50:43.331Z,63.57
2022-09-25T10:53:39.694Z,62.95
2022-09-25T10:56:12.455Z,63.30
2022-09-25T10:58:47.974Z,63.78
2022-09-25T11:01:16.280Z,63.81
2022-09-25T11:03:51.638Z,64.62
2022-09-25T11:06:29.390Z,61.75
2022-09-25T11:09:01.712Z,61.43
2022-09-25T11:11:28.916Z,61.53
2022-09-25T11:13:59.080Z,60.79
2022-09-25T11:16:47.677Z,60.30
2022-09-25T11:19:29.189Z,60.07
2022-09-25T11:22:21.003Z,56.92
2022-09-25T11:25:13.120Z,57.10
2022-09-25T11:28:06.885Z,57.95
2022-09-25T11:30:43.262Z,57.11
2022-09-25T11:33:28.547Z,57.25
2022-09-25T11:36:06.145Z,58.25
2022-09-25T11:38:58.177Z,58.09
2022-09-25T11:41:37.105Z,58.48
2022-09-25T11:44:07.183Z,58.61
2022-09-25T11:46:44.214Z,59.16
2022-09-25T11:49:36.170Z,60.11
2022-09-25T11:52:40.253Z,58.78
2022-09-25T11:55:52.405Z,58.79
2022-09-25T11:58:50.462Z,59.03
2022-09-25T12:01:29.653Z,59.82
2022-09-25T12:04:20.511Z,60.86
2022-09-25T12:07:02.987Z,61.36
2022-09-25T12:09:57.036Z,61.38
2022-09-25T12:12:36.692Z,62.08
2022-09-25T12:15:14.967Z,61.08
2022-09-25T12:17:54.244Z,61.69
2022-09-25T12:20:30.978Z,62.18
2022-09-25T12:23:09.859Z,61.98
2022-09-25T12:25:54.241Z,61.50
2022-09-25T12:28:42.100Z,60.48
2022-09-25T12:31:27.739Z,60.08
2022-09-25T12:34:22.116Z,59.11
2022-09-25T12:37:43.688Z,59.49
2022-09-25T12:40:31.541Z,60.31
2022-09-25T12:43:23.801Z,57.57
2022-09-25T12:46:13.110Z,58.23
2022-09-25T12:48:44.719Z,58.08
2022-09-25T12:51:35.188Z,58.05
2022-09-25T12:54:13.506Z,60.34
2022-09-25T12:57:03.463Z,59.99
2022-09-25T12:59:46.662Z,58.20
2022-09-25T13:02:34.206Z,59.24
2022-09-25T13:05:11.900Z,57.44
2022-09-25T13:07:49.367Z,58.82
2022-09-25T13:10:31.167Z,60.49
2022-09-25T13:13:02.548Z,59.27
2022-09-25T13:15:33.135Z,59.87
2022-09-25T13:18:00.436Z,59.81
2022-09-25T13:20:27.238Z,60.86
2022-09-25T13:23:26.446Z,60.38
2022-09-25T13:26:00.994Z,62.32
2022-09-25T13:28:38.450Z,61.41
2022-09-25T13:31:20.469Z,62.10
2022-09-25T13:34:05.155Z,61.59
2022-09-25T13:36:39.995Z,63.07
2022-09-25T13:39:45.318Z,63.14
2022-09-25T13:42:30.710Z,62.69
2022-09-25T13:45:17.739Z,64.12
2022-09-25T13:47:54.851Z,63.27
2022-09-25T13:50:29.210Z,63.80
2022-09-25T13:53:17.689Z,65.15
2022-09-25T13:55:50.193Z,66.28
2022-09-25T13:58:23.219Z,65.19
2022-09-25T14:00:57.699Z,67.06
2022-09-25T14:03:50.118Z,67.92
2022-09-25T14:06:25.904Z,68.49
2022-09-25T14:08:56.039Z,69.04
2022-09-25T14:11:33.536Z,69.58
2022-09-25T14:14:05.202Z,69.24
2022-09-25T14:16:35.771Z,71.01
2022-09-25T14:19:04.999Z,71.80
2022-09-25T14:21:34.946Z,72.38
2022-09-25T14:24:23.528Z,74.07
2022-09-25T14:26:53.690Z,75.47
2022-09-25T14:29:26.572Z,75.88
2022-09-25T14:32:25.864Z,77.14
2022-09-25T14:35:13.958Z,77.99
2022-09-25T14:38:19.378Z,77.68
2022-09-25T14:43:49.744Z,80.71
2022-09-25T14:46:20.102Z,80.53
2022-09-25T14:49:00.967Z,82.09
2022-09-25T14:51:40.936Z,81.98
2022-09-25T14:54:15.431Z,82.88
2022-09-25T14:56:47.064Z,83.45
2022-09-25T14:59:19.668Z,83.71
2022-09-25T15:01:51.609Z,84.04
2022-09-25T15:04:27.128Z,84.94
2022-09-25T15:07:14.927Z,85.74
2022-09-25T15:09:49.813Z,86.61
2022-09-25T15:12:34.438Z,87.22
2022-09-25T15:15:02.988Z,87.84
2022-09-25T15:17:32.768Z,88.38
2022-09-25T15:20:03.209Z,89.13
2022-09-25T15:22:37.025Z,89.64
2022-09-25T15:25:07.093Z,90.26
2022-09-25T15:27:37.048Z,91.20
2022-09-25T15:30:05.238Z,91.55
2022-09-25T15:32:39.764Z,92.04
2022-09-25T15:35:19.473Z,92.40
2022-09-25T15:37:47.939Z,93.38
2022-09-25T15:40:17.694Z,94.23
2022-09-25T15:42:46.678Z,93.68
2022-09-25T15:45:32.677Z,94.65
2022-09-25T15:48:01.441Z,95.28
2022-09-25T15:50:29.627Z,95.68
2022-09-25T15:53:00.242Z,96.31
2022-09-25T15:55:29.323Z,96.71
2022-09-25T15:58:04.115Z,97.43
2022-09-25T16:00:49.597Z,97.90
2022-09-25T16:03:41.059Z,98.48
2022-09-25T16:06:16.577Z,99.17
2022-09-25T16:08:44.054Z,99.26
2022-09-25T16:11:16.732Z,99.12
2022-09-25T16:13:48.703Z,99.77
2022-09-25T16:16:20.727Z,99.52
2022-09-25T16:18:48.640Z,99.56
2022-09-25T16:21:31.847Z,99.70
2022-09-25T16:24:03.785Z,100.00
2022-09-25T16:26:36.132Z,100.00
2022-09-25T16:29:12.944Z,99.38
2022-09-25T16:31:41.738Z,100.00
2022-09-25T16:34:19.476Z,100.00
2022-09-25T16:36:48.569Z,100.00
2022-09-25T16:39:23.949Z,100.00
2022-09-25T16:41:51.597Z,100.00
2022-09-25T16:44:22.274Z,100.00
2022-09-25T16:46:54.827Z,100.00
2022-09-25T16:49:22.278Z,100.00
2022-09-25T16:51:50.652Z,100.00
2022-09-25T16:54:22.076Z,100.00
2022-09-25T16:56:49.315Z,100.00
2022-09-25T16:59:22.215Z,100.00
2022-09-25T17:01:55.907Z,100.00
2022-09-25T17:04:26.295Z,100.00
2022-09-25T17:06:54.369Z,100.00
2022-09-25T17:09:21.140Z,100.00
2022-09-25T17:11:52.322Z,100.00
2022-09-25T17:14:25.508Z,100.00
2022-09-25T17:16:54.604Z,100.00
2022-09-25T17:19:22.092Z,100.00
2022-09-25T17:21:51.710Z,100.00
2022-09-25T17:24:21.359Z,100.00
2022-09-25T17:26:48.215Z,100.00
2022-09-25T17:29:15.272Z,100.00
2022-09-25T17:31:42.189Z,100.00
2022-09-25T17:34:18.101Z,100.00
2022-09-25T17:36:45.613Z,100.00
2022-09-25T17:39:13.317Z,100.00
2022-09-25T17:41:40.548Z,100.00
2022-09-25T17:44:17.002Z,100.00
2022-09-25T17:46:44.351Z,100.00
2022-09-25T17:49:11.617Z,100.00
2022-09-25T17:51:39.070Z,100.00
2022-09-25T17:54:06.650Z,100.00
2022-09-25T17:56:34.979Z,100.00
2022-09-25T17:59:02.295Z,100.00
2022-09-25T18:01:35.266Z,100.00
2022-09-25T18:04:31.590Z,100.00
2022-09-25T18:06:58.548Z,100.00
2022-09-25T18:09:25.605Z,100.00
2022-09-25T18:11:52.672Z,100.00
2022-09-25T18:14:19.410Z,100.00
2022-09-25T18:16:46.433Z,100.00
2022-09-25T18:19:45.178Z,100.00
2022-09-25T18:22:19.084Z,100.00
2022-09-25T18:24:47.223Z,100.00
2022-09-25T18:27:15.456Z,100.00
2022-09-25T18:29:44.649Z,100.00
2022-09-25T18:32:11.767Z,100.00
2022-09-25T18:34:38.839Z,100.00
2022-09-25T18:37:05.661Z,100.00
2022-09-25T18:39:32.510Z,100.00
2022-09-25T18:41:59.474Z,100.00
2022-09-25T18:44:26.982Z,100.00
2022-09-25T18:46:54.723Z,100.00
2022-09-25T18:49:21.897Z,100.00
2022-09-25T18:51:48.814Z,100.00
2022-09-25T18:54:16.116Z,100.00
2022-09-25T18:56:43.167Z,100.00
2022-09-25T18:59:10.340Z,100.00
2022-09-25T19:01:39.439Z,100.00
2022-09-25T19:04:08.072Z,100.00
2022-09-25T19:06:35.154Z,100.00
2022-09-25T19:09:04.317Z,100.00
2022-09-25T19:11:31.287Z,100.00
2022-09-25T19:13:58.917Z,100.00
2022-09-25T19:16:26.021Z,100.00
2022-09-25T19:18:52.929Z,100.00
2022-09-25T19:21:24.560Z,100.00
2022-09-25T19:23:51.591Z,100.00
2022-09-25T19:26:22.367Z,100.00
2022-09-25T19:28:49.212Z,100.00
2022-09-25T19:31:17.850Z,100.00
2022-09-25T19:33:45.484Z,100.00
2022-09-25T19:36:19.497Z,100.00
2022-09-25T19:38:47.776Z,100.00
2022-09-25T19:41:26.243Z,100.00
2022-09-25T19:43:56.655Z,100.00
2022-09-25T19:46:24.264Z,100.00
2022-09-25T19:48:51.410Z,100.00
2022-09-25T19:51:21.594Z,100.00
2022-09-25T19:53:49.396Z,100.00
2022-09-25T19:56:16.870Z,100.00
2022-09-25T19:58:43.972Z,100.00
2022-09-25T20:01:13.269Z,100.00
2022-09-25T20:03:40.415Z,100.00
2022-09-25T20:06:08.886Z,100.00
2022-09-25T20:08:36.500Z,100.00
2022-09-25T20:11:18.657Z,100.00
2022-09-25T20:13:46.995Z,100.00
2022-09-25T20:16:16.392Z,100.00
2022-09-25T20:18:46.904Z,100.00
2022-09-25T20:21:15.468Z,100.00
2022-09-25T20:23:42.242Z,100.00
2022-09-25T20:26:15.829Z,100.00
2022-09-25T20:28:43.815Z,100.00
2022-09-25T20:31:14.371Z,100.00
2022-09-25T20:33:42.455Z,100.00
2022-09-25T20:36:12.062Z,100.00
2022-09-25T20:38:38.970Z,100.00
2022-09-25T20:41:09.077Z,100.00
2022-09-25T20:43:38.640Z,100.00
2022-09-25T20:46:13.793Z,100.00
2022-09-25T20:48:45.530Z,100.00
2022-09-25T20:51:15.303Z,100.00
2022-09-25T20:53:43.158Z,100.00
2022-09-25T20:56:14.850Z,100.00
2022-09-25T20:58:43.529Z,100.00
2022-09-25T21:01:14.234Z,100.00
2022-09-25T21:03:43.792Z,100.00
2022-09-25T21:06:18.110Z,100.00
2022-09-25T21:08:45.216Z,100.00
2022-09-25T21:11:12.971Z,100.00
2022-09-25T21:13:40.683Z,100.00
2022-09-25T21:16:14.668Z,100.00
2022-09-25T21:18:42.635Z,100.00
2022-09-25T21:21:12.882Z,100.00
2022-09-25T21:23:41.595Z,100.00
2022-09-25T21:26:11.196Z,100.00
2022-09-25T21:28:39.627Z,100.00
2022-09-25T21:31:10.697Z,100.00
2022-09-25T21:33:37.735Z,100.00
2022-09-25T21:36:05.375Z,100.00
2022-09-25T21:38:33.952Z,100.00
2022-09-25T21:41:03.678Z,100.00
2022-09-25T21:43:32.719Z,100.00
2022-09-25T21:46:08.245Z,100.00
2022-09-25T21:48:36.928Z,100.00
2022-09-25T21:51:05.806Z,100.00
2022-09-25T21:53:33.971Z,100.00
2022-09-25T21:56:07.651Z,100.00
2022-09-25T21:58:36.240Z,100.00
2022-09-25T22:01:14.698Z,100.00
2022-09-25T22:03:43.454Z,100.00
2022-09-25T22:06:13.712Z,100.00
2022-09-25T22:08:43.470Z,100.00
2022-09-25T22:11:11.856Z,100.00
2022-09-25T22:13:41.422Z,100.00
2022-09-25T22:16:18.162Z,100.00
2022-09-25T22:18:48.230Z,100.00
2022-09-25T22:21:18.170Z,100.00
2022-09-25T22:23:44.989Z,100.00
2022-09-25T22:26:13.579Z,100.00
2022-09-25T22:28:41.085Z,100.00
2022-09-25T22:31:13.687Z,100.00
2022-09-25T22:33:41.769Z,100.00
2022-09-25T22:36:09.920Z,100.00
2022-09-25T22:38:37.720Z,100.00
2022-09-25T22:41:13.062Z,100.00
2022-09-25T22:43:41.615Z,100.00
2022-09-25T22:46:10.691Z,100.00
2022-09-25T22:48:38.134Z,100.00
2022-09-25T22:51:16.959Z,100.00
2022-09-25T22:53:44.865Z,100.00
2022-09-25T22:56:13.833Z,100.00
2022-09-25T22:58:41.687Z,100.00
2022-09-25T23:01:14.294Z,100.00
2022-09-25T23:03:41.554Z,100.00
2022-09-25T23:06:08.621Z,100.00
2022-09-25T23:08:35.845Z,100.00
2022-09-25T23:11:08.183Z,100.00
2022-09-25T23:13:36.212Z,100.00
2022-09-25T23:16:07.943Z,100.00
2022-09-25T23:18:36.663Z,100.00
2022-09-25T23:21:04.461Z,100.00
2022-09-25T23:23:31.617Z,100.00
2022-09-25T23:26:06.099Z,100.00
2022-09-25T23:28:35.341Z,100.00
2022-09-25T23:31:11.516Z,100.00
2022-09-25T23:33:40.131Z,100.00
2022-09-25T23:36:08.115Z,100.00
2022-09-25T23:38:35.207Z,100.00
2022-09-25T23:41:12.067Z,100.00
2022-09-25T23:43:38.839Z,100.00
2022-09-25T23:46:06.390Z,100.00
2022-09-25T23:48:33.391Z,100.00
2022-09-25T23:51:00.185Z,100.00
2022-09-25T23:53:27.143Z,100.00
2022-09-25T23:55:54.122Z,100.00
2022-09-25T23:58:20.914Z,100.00
